sensor_id;sensor_type;location;lat;lon;timestamp;pressure;altitude;pressure_sealevel;temperature;humidity
5053;BME280;2545;50.892;5.740;2023-02-10T00:01:38;56225.81;;;-142.21;85.87
5053;BME280;2545;50.892;5.740;2023-02-10T00:04:04;56178.75;;;-142.21;85.85
5053;BME280;2545;50.892;5.740;2023-02-10T00:06:30;56251.31;;;-142.21;86.10
5053;BME280;2545;50.892;5.740;2023-02-10T00:08:58;56233.66;;;-142.21;85.83
5053;BME280;2545;50.892;5.740;2023-02-10T00:11:24;56206.22;;;-142.21;85.97
5053;BME280;2545;50.892;5.740;2023-02-10T00:14:11;56247.38;;;-142.21;86.21
5053;BME280;2545;50.892;5.740;2023-02-10T00:16:36;56163.06;;;-142.21;87.47
5053;BME280;2545;50.892;5.740;2023-02-10T00:19:02;56247.38;;;-142.21;86.84
5053;BME280;2545;50.892;5.740;2023-02-10T00:21:27;56229.75;;;-142.21;86.27
5053;BME280;2545;50.892;5.740;2023-02-10T00:23:53;56225.81;;;-142.21;86.21
5053;BME280;2545;50.892;5.740;2023-02-10T00:26:18;56261.13;;;-142.21;85.69
5053;BME280;2545;50.892;5.740;2023-02-10T00:28:43;56247.38;;;-142.21;85.96
5053;BME280;2545;50.892;5.740;2023-02-10T00:31:11;56245.44;;;-142.21;85.97
5053;BME280;2545;50.892;5.740;2023-02-10T00:33:37;56296.41;;;-142.21;87.54
5053;BME280;2545;50.892;5.740;2023-02-10T00:36:07;56292.50;;;-142.21;87.93
5053;BME280;2545;50.892;5.740;2023-02-10T00:38:33;56227.78;;;-142.21;87.52
5053;BME280;2545;50.892;5.740;2023-02-10T00:41:10;56219.94;;;-142.21;87.95
5053;BME280;2545;50.892;5.740;2023-02-10T00:43:36;56216.00;;;-142.21;88.73
5053;BME280;2545;50.892;5.740;2023-02-10T00:46:05;56227.78;;;-142.21;88.23
5053;BME280;2545;50.892;5.740;2023-02-10T00:48:30;56259.16;;;-142.21;88.41
5053;BME280;2545;50.892;5.740;2023-02-10T00:50:56;56255.22;;;-142.21;88.64
5053;BME280;2545;50.892;5.740;2023-02-10T00:53:21;56210.13;;;-142.21;88.44
5053;BME280;2545;50.892;5.740;2023-02-10T00:55:46;56247.38;;;-142.21;88.29
5053;BME280;2545;50.892;5.740;2023-02-10T00:58:12;56227.78;;;-142.21;87.83
5053;BME280;2545;50.892;5.740;2023-02-10T01:00:37;56257.19;;;-142.21;88.36
5053;BME280;2545;50.892;5.740;2023-02-10T01:03:02;56217.97;;;-142.21;89.19
5053;BME280;2545;50.892;5.740;2023-02-10T01:05:28;56217.97;;;-142.21;89.19
5053;BME280;2545;50.892;5.740;2023-02-10T01:07:53;56265.03;;;-142.21;89.42
5053;BME280;2545;50.892;5.740;2023-02-10T01:10:19;56235.63;;;-142.21;90.17
5053;BME280;2545;50.892;5.740;2023-02-10T01:12:44;56245.44;;;-142.21;89.96
5053;BME280;2545;50.892;5.740;2023-02-10T01:15:10;56245.44;;;-142.21;89.17
5053;BME280;2545;50.892;5.740;2023-02-10T01:17:35;56259.16;;;-142.21;88.35
5053;BME280;2545;50.892;5.740;2023-02-10T01:20:00;56239.56;;;-142.21;88.25
5053;BME280;2545;50.892;5.740;2023-02-10T01:22:26;56268.97;;;-142.21;88.29
5053;BME280;2545;50.892;5.740;2023-02-10T01:24:51;56270.91;;;-142.21;88.39
5053;BME280;2545;50.892;5.740;2023-02-10T01:27:16;56202.28;;;-142.21;88.21
5053;BME280;2545;50.892;5.740;2023-02-10T01:29:41;56280.72;;;-142.21;87.63
5053;BME280;2545;50.892;5.740;2023-02-10T01:32:07;56206.22;;;-142.21;86.76
5053;BME280;2545;50.892;5.740;2023-02-10T01:34:32;56263.06;;;-142.21;86.69
5053;BME280;2545;50.892;5.740;2023-02-10T01:36:57;56233.66;;;-142.21;86.01
5053;BME280;2545;50.892;5.740;2023-02-10T01:39:23;56263.06;;;-142.21;86.00
5053;BME280;2545;50.892;5.740;2023-02-10T01:41:48;56245.44;;;-142.21;85.29
5053;BME280;2545;50.892;5.740;2023-02-10T01:46:46;56245.44;;;-142.21;84.53
5053;BME280;2545;50.892;5.740;2023-02-10T01:49:15;56186.59;;;-142.21;84.44
5053;BME280;2545;50.892;5.740;2023-02-10T01:51:48;56251.31;;;-142.21;84.69
5053;BME280;2545;50.892;5.740;2023-02-10T01:54:24;56229.75;;;-142.21;85.00
5053;BME280;2545;50.892;5.740;2023-02-10T01:56:52;56219.94;;;-142.21;85.22
5053;BME280;2545;50.892;5.740;2023-02-10T01:59:18;56261.13;;;-142.21;84.49
5053;BME280;2545;50.892;5.740;2023-02-10T02:01:45;56247.38;;;-142.21;84.24
5053;BME280;2545;50.892;5.740;2023-02-10T02:04:11;56255.22;;;-142.21;84.07
5053;BME280;2545;50.892;5.740;2023-02-10T02:06:36;56202.28;;;-142.21;83.98
5053;BME280;2545;50.892;5.740;2023-02-10T02:09:02;56282.69;;;-142.21;84.46
5053;BME280;2545;50.892;5.740;2023-02-10T02:11:58;56268.97;;;-142.21;84.33
5053;BME280;2545;50.892;5.740;2023-02-10T02:14:53;56247.38;;;-142.21;84.89
5053;BME280;2545;50.892;5.740;2023-02-10T02:20:07;56257.19;;;-142.21;85.03
5053;BME280;2545;50.892;5.740;2023-02-10T02:26:06;56243.47;;;-142.21;85.30
5053;BME280;2545;50.892;5.740;2023-02-10T02:37:36;56274.84;;;-142.21;84.92
5053;BME280;2545;50.892;5.740;2023-02-10T02:39:59;56229.75;;;-142.21;85.32
5053;BME280;2545;50.892;5.740;2023-02-10T02:42:27;56231.72;;;-142.21;85.92
5053;BME280;2545;50.892;5.740;2023-02-10T02:44:58;56192.50;;;-142.21;86.20
5053;BME280;2545;50.892;5.740;2023-02-10T02:47:38;56206.22;;;-142.21;86.93
5053;BME280;2545;50.892;5.740;2023-02-10T03:01:23;56241.50;;;-142.21;87.82
5053;BME280;2545;50.892;5.740;2023-02-10T03:03:52;56251.31;;;-142.21;88.03
5053;BME280;2545;50.892;5.740;2023-02-10T03:06:18;56235.63;;;-142.21;88.58
5053;BME280;2545;50.892;5.740;2023-02-10T03:08:43;56229.75;;;-142.21;89.08
5053;BME280;2545;50.892;5.740;2023-02-10T03:11:08;56227.78;;;-142.21;89.59
5053;BME280;2545;50.892;5.740;2023-02-10T03:13:34;56192.50;;;-142.21;89.89
5053;BME280;2545;50.892;5.740;2023-02-10T03:15:59;56231.72;;;-142.21;89.99
5053;BME280;2545;50.892;5.740;2023-02-10T03:18:25;56268.97;;;-142.21;90.95
5053;BME280;2545;50.892;5.740;2023-02-10T03:20:50;56217.97;;;-142.21;92.00
5053;BME280;2545;50.892;5.740;2023-02-10T03:23:16;56225.81;;;-142.21;93.21
5053;BME280;2545;50.892;5.740;2023-02-10T03:25:44;56208.16;;;-142.21;94.55
5053;BME280;2545;50.892;5.740;2023-02-10T03:28:09;56251.31;;;-142.21;95.90
5053;BME280;2545;50.892;5.740;2023-02-10T03:30:36;56245.44;;;-142.21;96.39
5053;BME280;2545;50.892;5.740;2023-02-10T03:33:02;56217.97;;;-142.21;97.23
5053;BME280;2545;50.892;5.740;2023-02-10T03:35:27;56241.50;;;-142.21;97.31
5053;BME280;2545;50.892;5.740;2023-02-10T03:37:52;56237.59;;;-142.21;97.49
5053;BME280;2545;50.892;5.740;2023-02-10T03:40:18;56237.59;;;-142.21;96.45
5053;BME280;2545;50.892;5.740;2023-02-10T03:42:43;56206.22;;;-142.21;95.58
5053;BME280;2545;50.892;5.740;2023-02-10T03:45:09;56257.19;;;-142.21;95.38
5053;BME280;2545;50.892;5.740;2023-02-10T03:47:34;56253.28;;;-142.21;95.72
5053;BME280;2545;50.892;5.740;2023-02-10T03:49:59;56241.50;;;-142.21;95.41
5053;BME280;2545;50.892;5.740;2023-02-10T03:52:24;56249.34;;;-142.21;95.15
5053;BME280;2545;50.892;5.740;2023-02-10T03:54:50;56227.78;;;-142.21;95.34
5053;BME280;2545;50.892;5.740;2023-02-10T03:57:15;56239.56;;;-142.21;95.47
5053;BME280;2545;50.892;5.740;2023-02-10T03:59:41;56231.72;;;-142.21;95.56
5053;BME280;2545;50.892;5.740;2023-02-10T04:02:06;56249.34;;;-142.21;96.25
5053;BME280;2545;50.892;5.740;2023-02-10T04:04:32;56227.78;;;-142.21;96.79
5053;BME280;2545;50.892;5.740;2023-02-10T04:06:57;56231.72;;;-142.21;97.46
5053;BME280;2545;50.892;5.740;2023-02-10T04:09:22;56227.78;;;-142.21;97.27
5053;BME280;2545;50.892;5.740;2023-02-10T04:11:48;56243.47;;;-142.21;97.37
5053;BME280;2545;50.892;5.740;2023-02-10T04:14:13;56233.66;;;-142.21;98.46
5053;BME280;2545;50.892;5.740;2023-02-10T04:16:39;56274.84;;;-142.21;99.12
5053;BME280;2545;50.892;5.740;2023-02-10T04:19:04;56268.97;;;-142.21;99.66
5053;BME280;2545;50.892;5.740;2023-02-10T04:21:29;56229.75;;;-142.21;100.00
5053;BME280;2545;50.892;5.740;2023-02-10T04:23:55;56206.22;;;-142.21;100.00
5053;BME280;2545;50.892;5.740;2023-02-10T04:26:21;56255.22;;;-142.21;100.00
5053;BME280;2545;50.892;5.740;2023-02-10T04:28:46;56221.91;;;-142.21;100.00
5053;BME280;2545;50.892;5.740;2023-02-10T04:31:12;56255.22;;;-142.21;100.00
5053;BME280;2545;50.892;5.740;2023-02-10T04:33:37;56231.72;;;-142.21;100.00
5053;BME280;2545;50.892;5.740;2023-02-10T04:36:03;56214.06;;;-142.21;100.00
5053;BME280;2545;50.892;5.740;2023-02-10T04:38:29;56245.44;;;-142.21;100.00
5053;BME280;2545;50.892;5.740;2023-02-10T04:40:55;56210.13;;;-142.21;100.00
5053;BME280;2545;50.892;5.740;2023-02-10T04:43:20;56231.72;;;-142.21;100.00
5053;BME280;2545;50.892;5.740;2023-02-10T04:45:46;56227.78;;;-142.21;99.94
5053;BME280;2545;50.892;5.740;2023-02-10T04:48:12;56231.72;;;-142.21;99.53
5053;BME280;2545;50.892;5.740;2023-02-10T04:50:39;56243.47;;;-142.21;98.92
5053;BME280;2545;50.892;5.740;2023-02-10T04:53:05;56214.06;;;-142.21;98.69
5053;BME280;2545;50.892;5.740;2023-02-10T04:55:30;56237.59;;;-142.21;97.91
5053;BME280;2545;50.892;5.740;2023-02-10T04:57:56;56251.31;;;-142.21;97.43
5053;BME280;2545;50.892;5.740;2023-02-10T05:00:21;56253.28;;;-142.21;97.21
5053;BME280;2545;50.892;5.740;2023-02-10T05:02:46;56249.34;;;-142.21;96.65
5053;BME280;2545;50.892;5.740;2023-02-10T05:05:12;56212.09;;;-142.21;95.97
5053;BME280;2545;50.892;5.740;2023-02-10T05:07:38;56249.34;;;-142.21;96.06
5053;BME280;2545;50.892;5.740;2023-02-10T05:10:04;56223.84;;;-142.21;96.35
5053;BME280;2545;50.892;5.740;2023-02-10T05:12:29;56249.34;;;-142.21;96.47
5053;BME280;2545;50.892;5.740;2023-02-10T05:14:54;56231.72;;;-142.21;96.91
5053;BME280;2545;50.892;5.740;2023-02-10T05:17:20;56210.13;;;-142.21;96.87
5053;BME280;2545;50.892;5.740;2023-02-10T05:19:45;56249.34;;;-142.21;97.50
5053;BME280;2545;50.892;5.740;2023-02-10T05:22:11;56265.03;;;-142.21;98.12
5053;BME280;2545;50.892;5.740;2023-02-10T05:24:36;56231.72;;;-142.21;98.95
5053;BME280;2545;50.892;5.740;2023-02-10T05:27:01;56202.28;;;-142.21;99.07
5053;BME280;2545;50.892;5.740;2023-02-10T05:29:27;56231.72;;;-142.21;98.96
5053;BME280;2545;50.892;5.740;2023-02-10T05:31:52;56198.38;;;-142.21;98.93
5053;BME280;2545;50.892;5.740;2023-02-10T05:34:17;56221.91;;;-142.21;98.85
5053;BME280;2545;50.892;5.740;2023-02-10T05:36:43;56251.31;;;-142.21;98.31
5053;BME280;2545;50.892;5.740;2023-02-10T05:39:09;56233.66;;;-142.21;98.26
5053;BME280;2545;50.892;5.740;2023-02-10T05:41:52;56245.44;;;-142.21;97.98
5053;BME280;2545;50.892;5.740;2023-02-10T05:44:18;56216.00;;;-142.21;98.51
5053;BME280;2545;50.892;5.740;2023-02-10T05:46:43;56255.22;;;-142.21;98.94
5053;BME280;2545;50.892;5.740;2023-02-10T05:49:08;56259.16;;;-142.21;98.92
5053;BME280;2545;50.892;5.740;2023-02-10T05:51:34;56233.66;;;-142.21;98.70
5053;BME280;2545;50.892;5.740;2023-02-10T05:53:59;56231.72;;;-142.21;98.38
5053;BME280;2545;50.892;5.740;2023-02-10T05:56:25;56265.03;;;-142.21;98.08
5053;BME280;2545;50.892;5.740;2023-02-10T05:58:50;56239.56;;;-142.21;97.62
5053;BME280;2545;50.892;5.740;2023-02-10T06:01:15;56235.63;;;-142.21;97.62
5053;BME280;2545;50.892;5.740;2023-02-10T06:03:41;56235.63;;;-142.21;97.24
5053;BME280;2545;50.892;5.740;2023-02-10T06:06:06;56243.47;;;-142.21;97.18
5053;BME280;2545;50.892;5.740;2023-02-10T06:08:32;56225.81;;;-142.21;96.86
5053;BME280;2545;50.892;5.740;2023-02-10T06:10:57;56251.31;;;-142.21;96.14
5053;BME280;2545;50.892;5.740;2023-02-10T06:13:22;56243.47;;;-142.21;95.70
5053;BME280;2545;50.892;5.740;2023-02-10T06:15:48;56241.50;;;-142.21;95.32
5053;BME280;2545;50.892;5.740;2023-02-10T06:18:13;56202.28;;;-142.21;94.70
5053;BME280;2545;50.892;5.740;2023-02-10T06:20:39;56225.81;;;-142.21;93.90
5053;BME280;2545;50.892;5.740;2023-02-10T06:23:04;56225.81;;;-142.21;93.74
5053;BME280;2545;50.892;5.740;2023-02-10T06:25:29;56233.66;;;-142.21;93.62
5053;BME280;2545;50.892;5.740;2023-02-10T06:27:55;56270.91;;;-142.21;93.67
5053;BME280;2545;50.892;5.740;2023-02-10T06:30:20;56243.47;;;-142.21;94.15
5053;BME280;2545;50.892;5.740;2023-02-10T06:32:45;56229.75;;;-142.21;94.46
5053;BME280;2545;50.892;5.740;2023-02-10T06:35:11;56231.72;;;-142.21;95.16
5053;BME280;2545;50.892;5.740;2023-02-10T06:37:38;56233.66;;;-142.21;95.86
5053;BME280;2545;50.892;5.740;2023-02-10T06:40:04;56225.81;;;-142.21;96.12
5053;BME280;2545;50.892;5.740;2023-02-10T06:42:30;56294.47;;;-142.21;96.75
5053;BME280;2545;50.892;5.740;2023-02-10T06:44:55;56235.63;;;-142.21;97.29
5053;BME280;2545;50.892;5.740;2023-02-10T06:47:20;56192.50;;;-142.21;97.61
5053;BME280;2545;50.892;5.740;2023-02-10T06:49:46;56245.44;;;-142.21;98.63
5053;BME280;2545;50.892;5.740;2023-02-10T06:52:11;56214.06;;;-142.21;99.61
5053;BME280;2545;50.892;5.740;2023-02-10T06:54:36;56263.06;;;-142.21;100.00
5053;BME280;2545;50.892;5.740;2023-02-10T06:57:02;56192.50;;;-142.21;100.00
5053;BME280;2545;50.892;5.740;2023-02-10T06:59:27;56239.56;;;-142.21;100.00
5053;BME280;2545;50.892;5.740;2023-02-10T07:01:53;56196.41;;;-142.21;100.00
5053;BME280;2545;50.892;5.740;2023-02-10T07:04:25;56212.09;;;-142.21;100.00
5053;BME280;2545;50.892;5.740;2023-02-10T07:06:50;56247.38;;;-142.21;100.00
5053;BME280;2545;50.892;5.740;2023-02-10T07:09:16;56206.22;;;-142.21;100.00
5053;BME280;2545;50.892;5.740;2023-02-10T07:11:41;56245.44;;;-142.21;100.00
5053;BME280;2545;50.892;5.740;2023-02-10T07:14:06;56204.25;;;-142.21;100.00
5053;BME280;2545;50.892;5.740;2023-02-10T07:16:31;56239.56;;;-142.21;100.00
5053;BME280;2545;50.892;5.740;2023-02-10T07:18:57;56233.66;;;-142.21;100.00
5053;BME280;2545;50.892;5.740;2023-02-10T07:21:22;56239.56;;;-142.21;100.00
5053;BME280;2545;50.892;5.740;2023-02-10T07:23:47;56206.22;;;-142.21;100.00
5053;BME280;2545;50.892;5.740;2023-02-10T07:26:13;56188.56;;;-142.21;100.00
5053;BME280;2545;50.892;5.740;2023-02-10T07:28:42;56241.50;;;-142.21;100.00
5053;BME280;2545;50.892;5.740;2023-02-10T07:31:08;56206.22;;;-142.21;100.00
5053;BME280;2545;50.892;5.740;2023-02-10T07:33:33;56233.66;;;-142.21;100.00
5053;BME280;2545;50.892;5.740;2023-02-10T07:36:00;56268.97;;;-142.21;100.00
5053;BME280;2545;50.892;5.740;2023-02-10T07:38:26;56196.41;;;-142.21;100.00
5053;BME280;2545;50.892;5.740;2023-02-10T07:40:51;56206.22;;;-142.21;100.00
5053;BME280;2545;50.892;5.740;2023-02-10T07:43:16;56198.38;;;-142.21;100.00
5053;BME280;2545;50.892;5.740;2023-02-10T07:45:42;56198.38;;;-142.21;100.00
5053;BME280;2545;50.892;5.740;2023-02-10T07:48:07;56253.28;;;-142.21;100.00
5053;BME280;2545;50.892;5.740;2023-02-10T07:50:32;56227.78;;;-142.21;100.00
5053;BME280;2545;50.892;5.740;2023-02-10T07:52:58;56257.19;;;-142.21;100.00
5053;BME280;2545;50.892;5.740;2023-02-10T07:55:23;56241.50;;;-142.21;100.00
5053;BME280;2545;50.892;5.740;2023-02-10T07:57:48;56206.22;;;-142.21;100.00
5053;BME280;2545;50.892;5.740;2023-02-10T08:00:14;56239.56;;;-142.21;100.00
5053;BME280;2545;50.892;5.740;2023-02-10T08:02:39;56229.75;;;-142.21;100.00
5053;BME280;2545;50.892;5.740;2023-02-10T08:05:05;56229.75;;;-142.21;100.00
5053;BME280;2545;50.892;5.740;2023-02-10T08:07:31;56231.72;;;-142.21;100.00
5053;BME280;2545;50.892;5.740;2023-02-10T08:09:56;56217.97;;;-142.21;100.00
5053;BME280;2545;50.892;5.740;2023-02-10T08:12:22;56245.44;;;-142.21;100.00
5053;BME280;2545;50.892;5.740;2023-02-10T08:14:47;56219.94;;;-142.21;100.00
5053;BME280;2545;50.892;5.740;2023-02-10T08:17:12;56241.50;;;-142.21;100.00
5053;BME280;2545;50.892;5.740;2023-02-10T08:19:38;56247.38;;;-142.21;100.00
5053;BME280;2545;50.892;5.740;2023-02-10T08:22:04;56221.91;;;-142.21;100.00
5053;BME280;2545;50.892;5.740;2023-02-10T08:24:29;56263.06;;;-142.21;100.00
5053;BME280;2545;50.892;5.740;2023-02-10T08:26:55;56253.28;;;-142.21;100.00
5053;BME280;2545;50.892;5.740;2023-02-10T08:29:20;56229.75;;;-142.21;100.00
5053;BME280;2545;50.892;5.740;2023-02-10T08:31:49;56235.63;;;-142.21;99.92
5053;BME280;2545;50.892;5.740;2023-02-10T08:34:16;56239.56;;;-142.21;98.73
5053;BME280;2545;50.892;5.740;2023-02-10T08:36:43;56259.16;;;-142.21;98.19
5053;BME280;2545;50.892;5.740;2023-02-10T08:39:08;56194.44;;;-142.21;97.79
5053;BME280;2545;50.892;5.740;2023-02-10T08:41:33;56233.66;;;-142.21;97.26
5053;BME280;2545;50.892;5.740;2023-02-10T08:43:59;56235.63;;;-142.21;97.06
5053;BME280;2545;50.892;5.740;2023-02-10T08:46:24;56233.66;;;-142.21;96.87
5053;BME280;2545;50.892;5.740;2023-02-10T08:48:49;56192.50;;;-142.21;96.56
5053;BME280;2545;50.892;5.740;2023-02-10T08:51:15;56206.22;;;-142.21;96.47
5053;BME280;2545;50.892;5.740;2023-02-10T08:53:40;56249.34;;;-142.21;96.24
5053;BME280;2545;50.892;5.740;2023-02-10T08:56:17;56257.19;;;-142.21;95.83
5053;BME280;2545;50.892;5.740;2023-02-10T08:58:42;56241.50;;;-142.21;94.33
5053;BME280;2545;50.892;5.740;2023-02-10T09:01:14;56212.09;;;-142.21;93.64
5053;BME280;2545;50.892;5.740;2023-02-10T09:03:41;56233.66;;;-142.21;93.22
5053;BME280;2545;50.892;5.740;2023-02-10T09:06:28;56233.66;;;-142.21;92.90
5053;BME280;2545;50.892;5.740;2023-02-10T09:08:55;56239.56;;;-142.21;92.20
5053;BME280;2545;50.892;5.740;2023-02-10T09:11:22;56278.78;;;-142.21;91.99
5053;BME280;2545;50.892;5.740;2023-02-10T09:13:49;56208.16;;;-142.21;90.08
5053;BME280;2545;50.892;5.740;2023-02-10T09:16:15;56184.66;;;-142.21;88.70
5053;BME280;2545;50.892;5.740;2023-02-10T09:18:40;56237.59;;;-142.21;88.30
5053;BME280;2545;50.892;5.740;2023-02-10T09:21:06;56261.13;;;-142.21;86.43
5053;BME280;2545;50.892;5.740;2023-02-10T09:23:31;56231.72;;;-142.21;85.46
5053;BME280;2545;50.892;5.740;2023-02-10T09:25:58;56206.22;;;-142.21;85.39
5053;BME280;2545;50.892;5.740;2023-02-10T09:28:25;56253.28;;;-142.21;85.80
5053;BME280;2545;50.892;5.740;2023-02-10T09:30:50;56247.38;;;-142.21;85.28
5053;BME280;2545;50.892;5.740;2023-02-10T09:33:16;56253.28;;;-142.21;83.56
5053;BME280;2545;50.892;5.740;2023-02-10T09:35:42;56249.34;;;-142.21;83.52
5053;BME280;2545;50.892;5.740;2023-02-10T09:38:11;56259.16;;;-142.21;82.56
5053;BME280;2545;50.892;5.740;2023-02-10T09:40:48;56272.88;;;-142.21;82.00
5053;BME280;2545;50.892;5.740;2023-02-10T09:45:57;56216.00;;;-142.21;83.21
5053;BME280;2545;50.892;5.740;2023-02-10T09:53:50;56239.56;;;-142.21;83.73
5053;BME280;2545;50.892;5.740;2023-02-10T09:56:20;56268.97;;;-142.21;83.18
5053;BME280;2545;50.892;5.740;2023-02-10T09:58:49;56239.56;;;-142.21;82.68
5053;BME280;2545;50.892;5.740;2023-02-10T10:01:35;56284.66;;;-142.21;82.57
5053;BME280;2545;50.892;5.740;2023-02-10T10:04:09;56208.16;;;-142.21;82.18
5053;BME280;2545;50.892;5.740;2023-02-10T10:06:37;56202.28;;;-142.21;82.24
5053;BME280;2545;50.892;5.740;2023-02-10T10:11:43;56245.44;;;-142.21;81.83
5053;BME280;2545;50.892;5.740;2023-02-10T10:14:21;56261.13;;;-142.21;81.03
5053;BME280;2545;50.892;5.740;2023-02-10T10:19:36;56249.34;;;-142.21;80.03
5053;BME280;2545;50.892;5.740;2023-02-10T10:22:32;56247.38;;;-142.21;77.26
5053;BME280;2545;50.892;5.740;2023-02-10T10:27:53;56272.88;;;-142.21;75.37
5053;BME280;2545;50.892;5.740;2023-02-10T10:30:51;56257.19;;;-142.21;73.01
5053;BME280;2545;50.892;5.740;2023-02-10T10:33:31;56223.84;;;-142.21;70.99
5053;BME280;2545;50.892;5.740;2023-02-10T10:36:00;56276.81;;;-142.21;70.06
5053;BME280;2545;50.892;5.740;2023-02-10T10:38:32;56239.56;;;-142.21;71.24
5053;BME280;2545;50.892;5.740;2023-02-10T10:41:03;56229.75;;;-142.21;70.90
5053;BME280;2545;50.892;5.740;2023-02-10T10:43:32;56235.63;;;-142.21;68.67
5053;BME280;2545;50.892;5.740;2023-02-10T10:46:11;56243.47;;;-142.21;65.29
5053;BME280;2545;50.892;5.740;2023-02-10T10:48:41;56257.19;;;-142.21;62.89
5053;BME280;2545;50.892;5.740;2023-02-10T10:51:07;56210.13;;;-142.21;61.26
5053;BME280;2545;50.892;5.740;2023-02-10T10:53:57;56253.28;;;-142.21;58.99
5053;BME280;2545;50.892;5.740;2023-02-10T10:56:42;56204.25;;;-142.21;56.98
5053;BME280;2545;50.892;5.740;2023-02-10T10:59:20;56204.25;;;-142.21;54.33
5053;BME280;2545;50.892;5.740;2023-02-10T11:01:50;56249.34;;;-142.21;52.74
5053;BME280;2545;50.892;5.740;2023-02-10T11:06:46;56239.56;;;-142.21;50.88
5053;BME280;2545;50.892;5.740;2023-02-10T11:11:46;56225.81;;;-142.21;51.27
5053;BME280;2545;50.892;5.740;2023-02-10T11:14:24;56231.72;;;-142.21;51.49
5053;BME280;2545;50.892;5.740;2023-02-10T11:16:56;56186.59;;;-142.21;50.33
5053;BME280;2545;50.892;5.740;2023-02-10T11:19:25;56249.34;;;-142.21;49.69
5053;BME280;2545;50.892;5.740;2023-02-10T11:21:52;56210.13;;;-142.21;49.11
5053;BME280;2545;50.892;5.740;2023-02-10T11:24:22;56206.22;;;-142.21;49.31
5053;BME280;2545;50.892;5.740;2023-02-10T11:27:04;56239.56;;;-142.21;48.30
5053;BME280;2545;50.892;5.740;2023-02-10T11:29:32;56212.09;;;-142.21;46.38
5053;BME280;2545;50.892;5.740;2023-02-10T11:31:59;56214.06;;;-142.21;46.06
5053;BME280;2545;50.892;5.740;2023-02-10T11:34:37;56208.16;;;-142.21;47.05
5053;BME280;2545;50.892;5.740;2023-02-10T11:37:21;56221.91;;;-142.21;47.17
5053;BME280;2545;50.892;5.740;2023-02-10T11:39:48;56206.22;;;-142.21;47.45
5053;BME280;2545;50.892;5.740;2023-02-10T11:42:23;56202.28;;;-142.21;46.37
5053;BME280;2545;50.892;5.740;2023-02-10T11:47:35;56204.25;;;-142.21;49.33
5053;BME280;2545;50.892;5.740;2023-02-10T11:50:00;56202.28;;;-142.21;46.63
5053;BME280;2545;50.892;5.740;2023-02-10T11:52:28;56214.06;;;-142.21;45.80
5053;BME280;2545;50.892;5.740;2023-02-10T11:54:58;56200.34;;;-142.21;47.32
5053;BME280;2545;50.892;5.740;2023-02-10T12:00:37;56214.06;;;-142.21;43.90
5053;BME280;2545;50.892;5.740;2023-02-10T12:03:18;56206.22;;;-142.21;43.24
5053;BME280;2545;50.892;5.740;2023-02-10T12:20:17;56198.38;;;-142.21;46.69
5053;BME280;2545;50.892;5.740;2023-02-10T12:29:04;56170.91;;;-142.21;48.25
5053;BME280;2545;50.892;5.740;2023-02-10T12:45:11;56163.06;;;-142.21;45.33
5053;BME280;2545;50.892;5.740;2023-02-10T12:53:35;56178.75;;;-142.21;42.51
5053;BME280;2545;50.892;5.740;2023-02-10T12:56:07;56153.28;;;-142.21;41.63
5053;BME280;2545;50.892;5.740;2023-02-10T12:58:43;56159.16;;;-142.21;40.56
5053;BME280;2545;50.892;5.740;2023-02-10T13:01:35;56170.91;;;-142.21;40.35
5053;BME280;2545;50.892;5.740;2023-02-10T13:04:14;56182.69;;;-142.21;40.58
5053;BME280;2545;50.892;5.740;2023-02-10T13:06:47;56165.03;;;-142.21;40.48
5053;BME280;2545;50.892;5.740;2023-02-10T13:12:13;56178.75;;;-142.21;40.20
5053;BME280;2545;50.892;5.740;2023-02-10T13:14:42;56198.38;;;-142.21;40.14
5053;BME280;2545;50.892;5.740;2023-02-10T13:17:08;56188.56;;;-142.21;39.32
5053;BME280;2545;50.892;5.740;2023-02-10T13:19:50;56149.34;;;-142.21;40.67
5053;BME280;2545;50.892;5.740;2023-02-10T13:22:25;56174.84;;;-142.21;39.13
5053;BME280;2545;50.892;5.740;2023-02-10T13:35:55;56165.03;;;-142.21;40.63
5053;BME280;2545;50.892;5.740;2023-02-10T13:38:21;56155.22;;;-142.21;40.75
5053;BME280;2545;50.892;5.740;2023-02-10T13:40:54;56149.34;;;-142.21;39.62
5053;BME280;2545;50.892;5.740;2023-02-10T13:43:39;56192.50;;;-142.21;40.65
5053;BME280;2545;50.892;5.740;2023-02-10T13:46:05;56182.69;;;-142.21;38.51
5053;BME280;2545;50.892;5.740;2023-02-10T13:48:34;56176.78;;;-142.21;37.38
5053;BME280;2545;50.892;5.740;2023-02-10T13:51:03;56163.06;;;-142.21;38.16
5053;BME280;2545;50.892;5.740;2023-02-10T13:58:52;56186.59;;;-142.21;39.80
5053;BME280;2545;50.892;5.740;2023-02-10T14:02:02;56219.94;;;-142.21;39.39
5053;BME280;2545;50.892;5.740;2023-02-10T14:04:43;56147.38;;;-142.21;40.21
5053;BME280;2545;50.892;5.740;2023-02-10T14:09:42;56147.38;;;-142.21;38.36
5053;BME280;2545;50.892;5.740;2023-02-10T14:12:25;56196.41;;;-142.21;38.43
5053;BME280;2545;50.892;5.740;2023-02-10T14:14:51;56167.00;;;-142.21;38.02
5053;BME280;2545;50.892;5.740;2023-02-10T14:17:26;56172.88;;;-142.21;40.05
5053;BME280;2545;50.892;5.740;2023-02-10T14:19:57;56178.75;;;-142.21;40.26
5053;BME280;2545;50.892;5.740;2023-02-10T14:22:32;56151.31;;;-142.21;39.63
5053;BME280;2545;50.892;5.740;2023-02-10T14:25:17;56182.69;;;-142.21;40.51
5053;BME280;2545;50.892;5.740;2023-02-10T14:27:51;56170.91;;;-142.21;39.20
5053;BME280;2545;50.892;5.740;2023-02-10T14:30:22;56127.78;;;-142.21;39.09
5053;BME280;2545;50.892;5.740;2023-02-10T14:32:48;56167.00;;;-142.21;39.30
5053;BME280;2545;50.892;5.740;2023-02-10T14:35:16;56151.31;;;-142.21;38.69
5053;BME280;2545;50.892;5.740;2023-02-10T14:37:50;56182.69;;;-142.21;40.28
5053;BME280;2545;50.892;5.740;2023-02-10T14:40:18;56141.50;;;-142.21;42.36
5053;BME280;2545;50.892;5.740;2023-02-10T14:42:44;56204.25;;;-142.21;45.05
5053;BME280;2545;50.892;5.740;2023-02-10T14:45:21;56204.25;;;-142.21;46.73
5053;BME280;2545;50.892;5.740;2023-02-10T14:47:48;56145.44;;;-142.21;48.06
5053;BME280;2545;50.892;5.740;2023-02-10T14:50:27;56180.72;;;-142.21;49.67
5053;BME280;2545;50.892;5.740;2023-02-10T14:52:53;56170.91;;;-142.21;51.27
5053;BME280;2545;50.892;5.740;2023-02-10T14:55:34;56198.38;;;-142.21;51.99
5053;BME280;2545;50.892;5.740;2023-02-10T14:58:16;56231.72;;;-142.21;54.50
5053;BME280;2545;50.892;5.740;2023-02-10T15:00:54;56206.22;;;-142.21;56.08
5053;BME280;2545;50.892;5.740;2023-02-10T15:03:22;56210.13;;;-142.21;56.66